createdAt,value
2023-05-09T00:04:11.384Z,9.30
2023-05-09T00:09:14.246Z,9.70
2023-05-09T00:14:18.472Z,11.80
2023-05-09T00:19:21.128Z,7.50
2023-05-09T00:24:23.810Z,10.70
2023-05-09T00:29:26.530Z,10.20
2023-05-09T00:34:29.225Z,9.00
2023-05-09T00:39:31.929Z,11.60
2023-05-09T00:44:34.609Z,9.70
2023-05-09T00:49:38.147Z,9.60
2023-05-09T00:54:42.680Z,10.50
2023-05-09T00:59:45.474Z,10.70
2023-05-09T01:04:48.513Z,8.00
2023-05-09T01:10:00.396Z,9.10
2023-05-09T01:15:19.443Z,8.90
2023-05-09T01:20:22.677Z,7.40
2023-05-09T01:26:05.564Z,7.60
2023-05-09T01:31:09.648Z,9.10
2023-05-09T01:36:17.340Z,8.20
2023-05-09T01:41:23.909Z,9.20
2023-05-09T01:46:28.540Z,9.50
2023-05-09T01:51:34.444Z,9.30
2023-05-09T01:56:39.093Z,7.00
2023-05-09T02:01:44.644Z,8.50
2023-05-09T02:06:53.327Z,7.70
2023-05-09T02:11:56.012Z,9.00
2023-05-09T02:17:06.415Z,7.30
2023-05-09T02:22:09.656Z,7.20
2023-05-09T02:27:13.879Z,7.20
2023-05-09T02:32:21.235Z,9.60
2023-05-09T02:37:25.371Z,7.50
2023-05-09T02:42:30.251Z,7.80
2023-05-09T02:47:32.953Z,7.60
2023-05-09T02:52:35.803Z,8.60
2023-05-09T02:57:38.567Z,10.10
2023-05-09T03:02:41.470Z,7.00
2023-05-09T03:07:45.049Z,7.10
2023-05-09T03:12:47.792Z,8.70
2023-05-09T03:17:50.564Z,7.30
2023-05-09T03:22:53.397Z,8.70
2023-05-09T03:27:56.192Z,9.40
2023-05-09T03:32:58.872Z,9.80
2023-05-09T03:38:01.567Z,10.00
2023-05-09T03:43:04.920Z,9.40
2023-05-09T03:48:09.855Z,7.80
2023-05-09T03:53:12.600Z,9.00
2023-05-09T03:58:15.307Z,7.20
2023-05-09T04:03:18.138Z,7.70
2023-05-09T04:08:20.924Z,11.80
2023-05-09T04:13:23.660Z,10.70
2023-05-09T04:18:26.402Z,16.20
2023-05-09T04:23:29.139Z,8.70
2023-05-09T04:28:32.045Z,11.50
2023-05-09T04:33:35.984Z,13.10
2023-05-09T04:38:38.706Z,11.90
2023-05-09T04:43:41.548Z,9.80
2023-05-09T04:48:44.251Z,12.00
2023-05-09T04:53:47.311Z,8.90
2023-05-09T04:58:50.397Z,10.60
2023-05-09T05:03:53.060Z,12.00
2023-05-09T05:08:56.188Z,8.60
2023-05-09T05:13:59.236Z,9.30
2023-05-09T05:19:02.320Z,9.20
2023-05-09T05:24:05.193Z,9.70
2023-05-09T05:29:07.999Z,10.30
2023-05-09T05:34:11.155Z,10.10
2023-05-09T05:39:14.064Z,12.60
2023-05-09T05:44:16.776Z,10.50
2023-05-09T05:49:19.509Z,11.40
2023-05-09T05:54:22.525Z,11.90
2023-05-09T05:59:28.258Z,10.70
2023-05-09T06:04:31.099Z,11.50
2023-05-09T06:10:06.117Z,10.80
2023-05-09T06:15:21.216Z,10.90
2023-05-09T06:20:23.891Z,9.10
2023-05-09T06:25:26.679Z,10.50
2023-05-09T06:30:29.745Z,17.20
2023-05-09T06:35:34.264Z,16.40
2023-05-09T06:40:37.312Z,8.00
2023-05-09T06:45:41.784Z,10.30
2023-05-09T06:50:45.110Z,9.10
2023-05-09T06:55:50.608Z,8.90
2023-05-09T07:00:54.400Z,9.80
2023-05-09T07:05:58.986Z,10.40
2023-05-09T07:11:01.744Z,9.10
2023-05-09T07:16:05.566Z,8.00
2023-05-09T07:21:08.803Z,8.00
2023-05-09T07:26:11.626Z,7.90
2023-05-09T07:31:14.425Z,7.00
2023-05-09T07:36:17.471Z,6.80
2023-05-09T07:41:20.766Z,7.60
2023-05-09T07:46:31.140Z,12.20
2023-05-09T07:51:34.148Z,18.50
2023-05-09T07:56:37.099Z,47.60
2023-05-09T08:01:40.005Z,22.70
2023-05-09T08:06:42.854Z,9.10
2023-05-09T08:11:48.985Z,6.00
2023-05-09T08:21:56.570Z,7.10
2023-05-09T08:26:59.955Z,6.00
2023-05-09T08:32:02.725Z,7.20
2023-05-09T08:37:05.751Z,9.40
2023-05-09T08:42:09.951Z,5.30
2023-05-09T08:47:15.721Z,5.80
2023-05-09T08:52:21.950Z,5.50
2023-05-09T09:02:37.726Z,6.90
2023-05-09T09:07:42.885Z,4.50
2023-05-09T09:12:50.260Z,7.70
2023-05-09T09:18:01.361Z,6.60
2023-05-09T09:23:10.591Z,6.10
2023-05-09T09:28:13.445Z,6.00
2023-05-09T09:33:22.962Z,5.70
2023-05-09T09:38:31.363Z,4.60
2023-05-09T09:43:34.658Z,5.50
2023-05-09T09:48:40.201Z,4.50
2023-05-09T09:53:46.975Z,5.90
2023-05-09T09:58:50.479Z,4.90
2023-05-09T10:03:56.292Z,4.90
2023-05-09T10:09:11.337Z,5.10
2023-05-09T10:14:41.568Z,4.90
2023-05-09T10:19:50.128Z,4.00
2023-05-09T10:25:14.746Z,4.70
2023-05-09T10:30:22.687Z,5.70
2023-05-09T10:35:37.077Z,3.80
2023-05-09T10:41:00.693Z,6.50
2023-05-09T10:46:17.050Z,8.70
2023-05-09T10:51:21.609Z,6.00
2023-05-09T10:56:24.620Z,7.30
2023-05-09T11:01:39.732Z,6.10
2023-05-09T11:06:53.985Z,6.10
2023-05-09T11:12:00.697Z,6.80
2023-05-09T11:17:23.424Z,7.10
2023-05-09T11:22:33.135Z,4.10
2023-05-09T11:27:52.283Z,5.90
2023-05-09T11:32:55.917Z,6.30
2023-05-09T11:38:26.031Z,5.70
2023-05-09T11:44:16.907Z,8.90
2023-05-09T11:49:51.210Z,8.10
2023-05-09T11:55:07.072Z,3.50
2023-05-09T12:00:18.162Z,6.10
2023-05-09T12:05:23.809Z,5.30
2023-05-09T12:15:38.952Z,4.50
2023-05-09T12:20:48.566Z,4.60
2023-05-09T12:25:56.034Z,5.50
2023-05-09T12:30:59.152Z,7.60
2023-05-09T12:36:04.021Z,6.60
2023-05-09T12:41:15.535Z,6.10
2023-05-09T12:46:30.979Z,5.80
2023-05-09T12:56:43.547Z,5.10
2023-05-09T13:01:53.824Z,6.70
2023-05-09T13:06:58.703Z,7.10
2023-05-09T13:12:04.389Z,5.70
2023-05-09T13:17:08.934Z,6.70
2023-05-09T13:22:12.447Z,6.90
2023-05-09T13:27:15.545Z,6.60
2023-05-09T13:32:18.620Z,4.10
2023-05-09T13:37:21.816Z,4.50
2023-05-09T13:42:24.726Z,5.00
2023-05-09T13:47:27.647Z,3.90
2023-05-09T13:52:30.397Z,8.60
2023-05-09T13:57:33.160Z,4.90
2023-05-09T14:02:39.874Z,3.50
2023-05-09T14:07:43.205Z,6.30
2023-05-09T14:12:47.329Z,5.10
2023-05-09T14:17:50.207Z,4.80
2023-05-09T14:22:55.232Z,8.00
2023-05-09T14:27:59.438Z,7.20
2023-05-09T14:33:02.200Z,8.10
2023-05-09T14:38:04.880Z,3.60
2023-05-09T14:43:07.668Z,4.70
2023-05-09T14:48:10.739Z,5.40
2023-05-09T14:53:13.548Z,5.60
2023-05-09T14:58:18.420Z,7.10
2023-05-09T15:03:21.173Z,9.20
2023-05-09T15:08:23.953Z,4.60
2023-05-09T15:13:26.770Z,5.90
2023-05-09T15:18:30.074Z,3.70
2023-05-09T15:23:32.794Z,5.70
2023-05-09T15:28:35.739Z,4.00
2023-05-09T15:33:38.473Z,5.40
2023-05-09T15:38:41.146Z,5.90
2023-05-09T15:43:43.862Z,5.30
2023-05-09T15:48:46.666Z,4.80
2023-05-09T15:53:50.526Z,5.60
2023-05-09T15:58:53.204Z,3.90
2023-05-09T16:03:56.177Z,6.20
2023-05-09T16:08:59.123Z,7.00
2023-05-09T16:14:02.088Z,4.20
2023-05-09T16:19:08.646Z,5.70
2023-05-09T16:24:11.740Z,4.80
2023-05-09T16:29:14.444Z,5.60
2023-05-09T16:34:17.141Z,4.40
2023-05-09T16:39:19.872Z,7.00
2023-05-09T16:44:23.029Z,3.80
2023-05-09T16:49:25.839Z,7.10
2023-05-09T16:54:28.603Z,8.70
2023-05-09T16:59:32.813Z,4.90
2023-05-09T17:04:37.524Z,4.00
2023-05-09T17:09:40.789Z,3.70
2023-05-09T17:14:45.307Z,4.90
2023-05-09T17:19:48.561Z,4.50
2023-05-09T17:24:51.382Z,5.80
2023-05-09T17:29:54.047Z,3.10
2023-05-09T17:34:56.705Z,5.90
2023-05-09T17:39:59.364Z,5.30
2023-05-09T17:45:02.131Z,9.90
2023-05-09T17:50:05.584Z,5.80
2023-05-09T17:55:08.796Z,4.50
2023-05-09T18:00:13.058Z,5.40
2023-05-09T18:05:16.269Z,6.20
2023-05-09T18:10:20.401Z,6.80
2023-05-09T18:15:24.169Z,8.60
2023-05-09T18:20:26.843Z,10.70
2023-05-09T18:25:29.564Z,8.30
2023-05-09T18:30:32.514Z,5.80
2023-05-09T18:35:35.218Z,6.20
2023-05-09T18:40:38.053Z,6.20
2023-05-09T18:45:45.040Z,6.50
2023-05-09T18:50:48.547Z,6.70
2023-05-09T18:55:51.364Z,6.90
2023-05-09T19:00:54.119Z,7.90
2023-05-09T19:05:58.716Z,6.70
2023-05-09T19:11:01.374Z,8.30
2023-05-09T19:16:08.833Z,11.20
2023-05-09T19:26:33.921Z,9.70
2023-05-09T19:31:37.927Z,12.10
2023-05-09T19:36:40.639Z,11.40
2023-05-09T19:41:43.612Z,7.00
2023-05-09T19:46:46.531Z,9.00
2023-05-09T19:51:49.258Z,8.80
2023-05-09T19:56:51.931Z,11.60
2023-05-09T20:01:54.727Z,16.70
2023-05-09T20:06:57.465Z,10.90
2023-05-09T20:12:02.752Z,11.40
2023-05-09T20:17:06.521Z,10.10
2023-05-09T20:22:09.567Z,9.90
2023-05-09T20:27:12.772Z,9.70
2023-05-09T20:32:15.469Z,7.00
2023-05-09T20:37:18.144Z,8.50
2023-05-09T20:42:20.818Z,11.30
2023-05-09T20:47:23.648Z,11.00
2023-05-09T20:52:26.321Z,12.60
2023-05-09T20:57:29.019Z,10.80
2023-05-09T21:02:31.740Z,10.30
2023-05-09T21:07:34.409Z,11.40
2023-05-09T21:12:37.230Z,8.10
2023-05-09T21:17:39.934Z,10.10
2023-05-09T21:22:42.722Z,11.50
2023-05-09T21:27:45.370Z,10.00
2023-05-09T21:32:51.003Z,13.50
2023-05-09T21:37:53.669Z,13.40
2023-05-09T21:42:56.417Z,8.60
2023-05-09T21:47:59.241Z,8.60
2023-05-09T21:53:02.151Z,7.20
2023-05-09T21:58:04.924Z,9.70
2023-05-09T22:03:07.805Z,7.40
2023-05-09T22:08:10.553Z,7.00
2023-05-09T22:13:13.530Z,6.70
2023-05-09T22:18:16.262Z,6.80
2023-05-09T22:23:18.908Z,8.80
2023-05-09T22:28:21.725Z,6.90
2023-05-09T22:33:24.388Z,11.10
2023-05-09T22:38:27.051Z,8.20
2023-05-09T22:43:38.715Z,9.00
2023-05-09T22:48:42.145Z,7.60
2023-05-09T22:53:44.813Z,6.40
2023-05-09T22:58:47.549Z,7.90
2023-05-09T23:03:50.885Z,9.40
2023-05-09T23:08:53.624Z,9.50
2023-05-09T23:13:56.338Z,6.70
2023-05-09T23:18:59.607Z,7.20
2023-05-09T23:24:02.300Z,10.00
2023-05-09T23:29:05.003Z,6.60
2023-05-09T23:34:07.665Z,6.20
2023-05-09T23:39:10.810Z,7.40
2023-05-09T23:44:13.549Z,7.60
2023-05-09T23:49:16.327Z,8.70
2023-05-09T23:54:21.384Z,7.70
2023-05-09T23:59:24.527Z,7.90
